sensor_id;sensor_type;location;lat;lon;timestamp;temperature;humidity
31639;DHT22;18248;51.522;7.020;2022-09-09T00:02:44;17.20;99.90
31639;DHT22;18248;51.522;7.020;2022-09-09T00:06:04;17.10;99.90
31639;DHT22;18248;51.522;7.020;2022-09-09T00:09:19;17.20;99.90
31639;DHT22;18248;51.522;7.020;2022-09-09T00:15:42;17.10;99.90
31639;DHT22;18248;51.522;7.020;2022-09-09T00:22:12;17.20;99.90
31639;DHT22;18248;51.522;7.020;2022-09-09T00:25:19;17.20;99.90
31639;DHT22;18248;51.522;7.020;2022-09-09T00:28:23;17.20;99.90
31639;DHT22;18248;51.522;7.020;2022-09-09T00:31:29;17.10;99.90
31639;DHT22;18248;51.522;7.020;2022-09-09T00:34:29;17.20;99.90
31639;DHT22;18248;51.522;7.020;2022-09-09T00:37:30;17.10;99.90
31639;DHT22;18248;51.522;7.020;2022-09-09T00:40:35;17.20;99.90
31639;DHT22;18248;51.522;7.020;2022-09-09T00:43:40;17.10;99.90
31639;DHT22;18248;51.522;7.020;2022-09-09T00:54:27;17.00;99.90
31639;DHT22;18248;51.522;7.020;2022-09-09T01:03:25;16.90;99.90
31639;DHT22;18248;51.522;7.020;2022-09-09T01:06:36;16.90;99.90
31639;DHT22;18248;51.522;7.020;2022-09-09T01:12:51;17.00;99.90
31639;DHT22;18248;51.522;7.020;2022-09-09T01:15:51;17.00;99.90
31639;DHT22;18248;51.522;7.020;2022-09-09T01:18:53;17.00;99.90
31639;DHT22;18248;51.522;7.020;2022-09-09T01:25:27;17.10;99.90
31639;DHT22;18248;51.522;7.020;2022-09-09T01:28:28;17.20;99.90
31639;DHT22;18248;51.522;7.020;2022-09-09T01:31:32;17.20;99.90
31639;DHT22;18248;51.522;7.020;2022-09-09T01:34:38;17.20;99.90
31639;DHT22;18248;51.522;7.020;2022-09-09T01:37:37;17.20;99.90
31639;DHT22;18248;51.522;7.020;2022-09-09T01:40:36;17.10;99.90
31639;DHT22;18248;51.522;7.020;2022-09-09T01:43:35;17.20;99.90
31639;DHT22;18248;51.522;7.020;2022-09-09T01:46:33;17.10;99.90
31639;DHT22;18248;51.522;7.020;2022-09-09T01:49:32;17.00;99.90
31639;DHT22;18248;51.522;7.020;2022-09-09T01:52:39;17.00;99.90
31639;DHT22;18248;51.522;7.020;2022-09-09T01:55:41;16.90;99.90
31639;DHT22;18248;51.522;7.020;2022-09-09T01:59:04;16.80;99.90
31639;DHT22;18248;51.522;7.020;2022-09-09T02:02:13;16.80;99.90
31639;DHT22;18248;51.522;7.020;2022-09-09T02:05:33;16.80;99.90
31639;DHT22;18248;51.522;7.020;2022-09-09T02:08:41;16.70;99.90
31639;DHT22;18248;51.522;7.020;2022-09-09T02:11:44;16.70;99.90
31639;DHT22;18248;51.522;7.020;2022-09-09T02:14:52;16.60;99.90
31639;DHT22;18248;51.522;7.020;2022-09-09T02:17:57;16.60;99.90
31639;DHT22;18248;51.522;7.020;2022-09-09T02:20:57;16.60;99.90
31639;DHT22;18248;51.522;7.020;2022-09-09T02:24:00;16.60;99.90
31639;DHT22;18248;51.522;7.020;2022-09-09T02:27:06;16.60;99.90
31639;DHT22;18248;51.522;7.020;2022-09-09T02:30:07;16.60;99.90
31639;DHT22;18248;51.522;7.020;2022-09-09T02:33:07;16.60;99.90
31639;DHT22;18248;51.522;7.020;2022-09-09T02:36:10;16.70;99.90
31639;DHT22;18248;51.522;7.020;2022-09-09T02:39:10;16.70;99.90
31639;DHT22;18248;51.522;7.020;2022-09-09T02:42:08;16.70;99.90
31639;DHT22;18248;51.522;7.020;2022-09-09T02:45:09;16.80;99.90
31639;DHT22;18248;51.522;7.020;2022-09-09T02:48:22;16.90;99.90
31639;DHT22;18248;51.522;7.020;2022-09-09T02:51:40;16.90;99.90
31639;DHT22;18248;51.522;7.020;2022-09-09T02:54:43;16.90;99.90
31639;DHT22;18248;51.522;7.020;2022-09-09T02:57:43;17.00;99.90
31639;DHT22;18248;51.522;7.020;2022-09-09T03:00:47;17.00;99.90
31639;DHT22;18248;51.522;7.020;2022-09-09T03:03:46;17.00;99.90
31639;DHT22;18248;51.522;7.020;2022-09-09T03:06:44;17.00;99.90
31639;DHT22;18248;51.522;7.020;2022-09-09T03:09:43;17.10;99.90
31639;DHT22;18248;51.522;7.020;2022-09-09T03:12:43;17.10;99.90
31639;DHT22;18248;51.522;7.020;2022-09-09T03:15:41;17.10;99.90
31639;DHT22;18248;51.522;7.020;2022-09-09T03:18:40;17.20;99.90
31639;DHT22;18248;51.522;7.020;2022-09-09T03:21:39;17.10;99.90
31639;DHT22;18248;51.522;7.020;2022-09-09T03:24:38;17.10;99.90
31639;DHT22;18248;51.522;7.020;2022-09-09T03:27:37;17.10;99.90
31639;DHT22;18248;51.522;7.020;2022-09-09T03:30:37;17.10;99.90
31639;DHT22;18248;51.522;7.020;2022-09-09T03:33:39;17.00;99.90
31639;DHT22;18248;51.522;7.020;2022-09-09T03:36:39;16.90;99.90
31639;DHT22;18248;51.522;7.020;2022-09-09T03:39:39;16.90;99.90
31639;DHT22;18248;51.522;7.020;2022-09-09T03:42:38;16.80;99.90
31639;DHT22;18248;51.522;7.020;2022-09-09T03:45:37;16.80;99.90
31639;DHT22;18248;51.522;7.020;2022-09-09T03:48:35;16.80;99.90
31639;DHT22;18248;51.522;7.020;2022-09-09T03:51:34;16.70;99.90
31639;DHT22;18248;51.522;7.020;2022-09-09T03:54:34;16.70;99.90
31639;DHT22;18248;51.522;7.020;2022-09-09T03:57:33;16.70;99.90
31639;DHT22;18248;51.522;7.020;2022-09-09T04:00:33;16.70;99.90
31639;DHT22;18248;51.522;7.020;2022-09-09T04:03:32;16.70;99.90
31639;DHT22;18248;51.522;7.020;2022-09-09T04:06:30;16.70;99.90
31639;DHT22;18248;51.522;7.020;2022-09-09T04:09:29;16.70;99.90
31639;DHT22;18248;51.522;7.020;2022-09-09T04:12:29;16.70;99.90
31639;DHT22;18248;51.522;7.020;2022-09-09T04:15:27;16.70;99.90
31639;DHT22;18248;51.522;7.020;2022-09-09T04:18:27;16.70;99.90
31639;DHT22;18248;51.522;7.020;2022-09-09T04:21:28;16.70;99.90
31639;DHT22;18248;51.522;7.020;2022-09-09T04:24:26;16.70;99.90
31639;DHT22;18248;51.522;7.020;2022-09-09T04:27:27;16.70;99.90
31639;DHT22;18248;51.522;7.020;2022-09-09T04:30:27;16.60;99.90
31639;DHT22;18248;51.522;7.020;2022-09-09T04:33:26;16.70;99.90
31639;DHT22;18248;51.522;7.020;2022-09-09T04:36:25;16.60;99.90
31639;DHT22;18248;51.522;7.020;2022-09-09T04:39:23;16.60;99.90
31639;DHT22;18248;51.522;7.020;2022-09-09T04:42:22;16.60;99.90
31639;DHT22;18248;51.522;7.020;2022-09-09T04:45:21;16.60;99.90
31639;DHT22;18248;51.522;7.020;2022-09-09T04:48:20;16.60;99.90
31639;DHT22;18248;51.522;7.020;2022-09-09T04:51:19;16.60;99.90
31639;DHT22;18248;51.522;7.020;2022-09-09T04:54:17;16.70;99.90
31639;DHT22;18248;51.522;7.020;2022-09-09T04:57:16;16.70;99.90
31639;DHT22;18248;51.522;7.020;2022-09-09T05:00:15;16.80;99.90
31639;DHT22;18248;51.522;7.020;2022-09-09T05:03:15;16.80;99.90
31639;DHT22;18248;51.522;7.020;2022-09-09T05:06:16;16.80;99.90
31639;DHT22;18248;51.522;7.020;2022-09-09T05:09:14;16.90;99.90
31639;DHT22;18248;51.522;7.020;2022-09-09T05:12:13;16.90;99.90
31639;DHT22;18248;51.522;7.020;2022-09-09T05:15:12;17.00;99.90
31639;DHT22;18248;51.522;7.020;2022-09-09T05:18:11;17.00;99.90
31639;DHT22;18248;51.522;7.020;2022-09-09T05:21:11;17.00;99.90
31639;DHT22;18248;51.522;7.020;2022-09-09T05:24:11;17.00;99.90
31639;DHT22;18248;51.522;7.020;2022-09-09T05:27:10;17.10;99.90
31639;DHT22;18248;51.522;7.020;2022-09-09T05:30:10;17.10;99.90
31639;DHT22;18248;51.522;7.020;2022-09-09T05:33:10;17.10;99.90
31639;DHT22;18248;51.522;7.020;2022-09-09T05:36:17;17.10;99.90
31639;DHT22;18248;51.522;7.020;2022-09-09T05:39:16;17.20;99.90
31639;DHT22;18248;51.522;7.020;2022-09-09T05:42:14;17.20;99.90
31639;DHT22;18248;51.522;7.020;2022-09-09T05:45:13;17.20;99.90
31639;DHT22;18248;51.522;7.020;2022-09-09T05:48:11;17.20;99.90
31639;DHT22;18248;51.522;7.020;2022-09-09T05:51:13;17.20;99.90
31639;DHT22;18248;51.522;7.020;2022-09-09T05:54:13;17.20;99.90
31639;DHT22;18248;51.522;7.020;2022-09-09T05:57:13;17.30;99.90
31639;DHT22;18248;51.522;7.020;2022-09-09T06:00:12;17.30;99.90
31639;DHT22;18248;51.522;7.020;2022-09-09T06:03:11;17.30;99.90
31639;DHT22;18248;51.522;7.020;2022-09-09T06:06:16;17.40;99.90
31639;DHT22;18248;51.522;7.020;2022-09-09T06:09:15;17.40;99.90
31639;DHT22;18248;51.522;7.020;2022-09-09T06:12:14;17.50;99.90
31639;DHT22;18248;51.522;7.020;2022-09-09T06:15:13;17.50;99.90
31639;DHT22;18248;51.522;7.020;2022-09-09T06:18:11;17.50;99.90
31639;DHT22;18248;51.522;7.020;2022-09-09T06:21:15;17.60;99.90
31639;DHT22;18248;51.522;7.020;2022-09-09T06:24:14;17.70;99.90
31639;DHT22;18248;51.522;7.020;2022-09-09T06:27:15;17.70;99.90
31639;DHT22;18248;51.522;7.020;2022-09-09T06:30:14;17.70;99.90
31639;DHT22;18248;51.522;7.020;2022-09-09T06:33:12;17.90;99.90
31639;DHT22;18248;51.522;7.020;2022-09-09T06:36:14;18.00;99.90
31639;DHT22;18248;51.522;7.020;2022-09-09T06:39:13;18.10;99.90
31639;DHT22;18248;51.522;7.020;2022-09-09T06:42:13;18.20;99.90
31639;DHT22;18248;51.522;7.020;2022-09-09T06:45:14;18.20;99.90
31639;DHT22;18248;51.522;7.020;2022-09-09T06:48:12;18.30;99.90
31639;DHT22;18248;51.522;7.020;2022-09-09T06:51:16;18.30;99.90
31639;DHT22;18248;51.522;7.020;2022-09-09T06:54:17;18.30;99.90
31639;DHT22;18248;51.522;7.020;2022-09-09T06:57:16;18.30;99.90
31639;DHT22;18248;51.522;7.020;2022-09-09T07:00:15;18.40;99.90
31639;DHT22;18248;51.522;7.020;2022-09-09T07:03:13;18.40;99.90
31639;DHT22;18248;51.522;7.020;2022-09-09T07:06:22;18.40;99.90
31639;DHT22;18248;51.522;7.020;2022-09-09T07:09:21;18.50;99.90
31639;DHT22;18248;51.522;7.020;2022-09-09T07:12:20;18.50;99.90
31639;DHT22;18248;51.522;7.020;2022-09-09T07:15:19;18.60;99.90
31639;DHT22;18248;51.522;7.020;2022-09-09T07:18:18;18.70;99.90
31639;DHT22;18248;51.522;7.020;2022-09-09T07:21:18;18.70;99.90
31639;DHT22;18248;51.522;7.020;2022-09-09T07:24:17;18.80;99.90
31639;DHT22;18248;51.522;7.020;2022-09-09T07:27:15;18.80;99.90
31639;DHT22;18248;51.522;7.020;2022-09-09T07:30:14;18.90;99.90
31639;DHT22;18248;51.522;7.020;2022-09-09T07:33:13;19.00;99.90
31639;DHT22;18248;51.522;7.020;2022-09-09T07:36:19;19.10;99.90
31639;DHT22;18248;51.522;7.020;2022-09-09T07:39:20;19.20;99.90
31639;DHT22;18248;51.522;7.020;2022-09-09T07:42:18;19.40;99.90
31639;DHT22;18248;51.522;7.020;2022-09-09T07:45:17;19.50;99.90
31639;DHT22;18248;51.522;7.020;2022-09-09T07:48:16;19.60;99.90
31639;DHT22;18248;51.522;7.020;2022-09-09T07:51:16;19.70;99.90
31639;DHT22;18248;51.522;7.020;2022-09-09T07:54:18;19.80;99.90
31639;DHT22;18248;51.522;7.020;2022-09-09T07:57:21;20.00;99.90
31639;DHT22;18248;51.522;7.020;2022-09-09T08:00:20;20.00;99.90
31639;DHT22;18248;51.522;7.020;2022-09-09T08:03:20;20.10;99.90
31639;DHT22;18248;51.522;7.020;2022-09-09T08:06:20;20.00;99.90
31639;DHT22;18248;51.522;7.020;2022-09-09T08:09:19;20.10;99.90
31639;DHT22;18248;51.522;7.020;2022-09-09T08:12:18;20.20;99.90
31639;DHT22;18248;51.522;7.020;2022-09-09T08:15:17;20.20;99.90
31639;DHT22;18248;51.522;7.020;2022-09-09T08:18:16;20.20;99.90
31639;DHT22;18248;51.522;7.020;2022-09-09T08:21:23;20.30;99.90
31639;DHT22;18248;51.522;7.020;2022-09-09T08:24:22;20.30;99.90
31639;DHT22;18248;51.522;7.020;2022-09-09T08:27:21;20.40;99.90
31639;DHT22;18248;51.522;7.020;2022-09-09T08:30:21;20.40;99.90
31639;DHT22;18248;51.522;7.020;2022-09-09T08:33:21;20.40;99.90
31639;DHT22;18248;51.522;7.020;2022-09-09T08:36:22;20.50;99.90
31639;DHT22;18248;51.522;7.020;2022-09-09T08:39:22;20.60;99.90
31639;DHT22;18248;51.522;7.020;2022-09-09T08:42:35;20.80;99.90
31639;DHT22;18248;51.522;7.020;2022-09-09T08:46:07;20.80;99.90
31639;DHT22;18248;51.522;7.020;2022-09-09T08:52:29;21.10;99.90
31639;DHT22;18248;51.522;7.020;2022-09-09T08:58:51;21.60;99.90
31639;DHT22;18248;51.522;7.020;2022-09-09T09:01:58;22.00;99.90
31639;DHT22;18248;51.522;7.020;2022-09-09T09:08:23;21.90;99.90
31639;DHT22;18248;51.522;7.020;2022-09-09T09:11:22;21.80;99.90
31639;DHT22;18248;51.522;7.020;2022-09-09T09:14:25;21.80;99.90
31639;DHT22;18248;51.522;7.020;2022-09-09T09:17:26;21.80;99.90
31639;DHT22;18248;51.522;7.020;2022-09-09T09:23:57;21.90;99.90
31639;DHT22;18248;51.522;7.020;2022-09-09T09:26:57;22.00;99.90
31639;DHT22;18248;51.522;7.020;2022-09-09T09:29:56;22.10;99.90
31639;DHT22;18248;51.522;7.020;2022-09-09T09:33:05;22.20;99.90
31639;DHT22;18248;51.522;7.020;2022-09-09T09:36:07;22.10;99.90
31639;DHT22;18248;51.522;7.020;2022-09-09T09:39:06;22.00;99.90
31639;DHT22;18248;51.522;7.020;2022-09-09T09:42:13;21.90;99.90
31639;DHT22;18248;51.522;7.020;2022-09-09T09:48:27;21.90;99.90
31639;DHT22;18248;51.522;7.020;2022-09-09T09:51:28;21.80;99.90
31639;DHT22;18248;51.522;7.020;2022-09-09T09:54:28;21.90;99.90
31639;DHT22;18248;51.522;7.020;2022-09-09T09:57:30;21.90;99.90
31639;DHT22;18248;51.522;7.020;2022-09-09T10:00:29;22.00;99.90
31639;DHT22;18248;51.522;7.020;2022-09-09T10:03:30;22.00;99.90
31639;DHT22;18248;51.522;7.020;2022-09-09T10:06:34;21.80;99.90
31639;DHT22;18248;51.522;7.020;2022-09-09T10:09:33;21.70;99.90
31639;DHT22;18248;51.522;7.020;2022-09-09T10:13:01;21.60;99.90
31639;DHT22;18248;51.522;7.020;2022-09-09T10:16:25;21.60;99.90
31639;DHT22;18248;51.522;7.020;2022-09-09T10:19:34;21.50;99.90
31639;DHT22;18248;51.522;7.020;2022-09-09T10:22:33;21.40;99.90
31639;DHT22;18248;51.522;7.020;2022-09-09T10:25:43;21.50;99.90
31639;DHT22;18248;51.522;7.020;2022-09-09T10:39:06;22.40;99.90
31639;DHT22;18248;51.522;7.020;2022-09-09T10:42:15;22.50;99.90
31639;DHT22;18248;51.522;7.020;2022-09-09T10:45:18;22.60;99.90
31639;DHT22;18248;51.522;7.020;2022-09-09T10:48:30;22.50;99.90
31639;DHT22;18248;51.522;7.020;2022-09-09T10:55:19;22.20;99.90
31639;DHT22;18248;51.522;7.020;2022-09-09T10:58:24;22.10;99.90
31639;DHT22;18248;51.522;7.020;2022-09-09T11:01:29;22.10;99.90
31639;DHT22;18248;51.522;7.020;2022-09-09T11:04:40;22.20;99.90
31639;DHT22;18248;51.522;7.020;2022-09-09T11:07:52;22.20;99.90
31639;DHT22;18248;51.522;7.020;2022-09-09T11:14:29;22.20;99.90
31639;DHT22;18248;51.522;7.020;2022-09-09T11:17:49;22.30;99.90
31639;DHT22;18248;51.522;7.020;2022-09-09T11:20:52;22.40;99.90
31639;DHT22;18248;51.522;7.020;2022-09-09T11:23:58;22.30;99.90
31639;DHT22;18248;51.522;7.020;2022-09-09T11:30:21;22.00;99.90
31639;DHT22;18248;51.522;7.020;2022-09-09T11:40:20;22.20;99.90
31639;DHT22;18248;51.522;7.020;2022-09-09T11:43:31;22.30;99.90
31639;DHT22;18248;51.522;7.020;2022-09-09T11:46:36;22.40;99.90
31639;DHT22;18248;51.522;7.020;2022-09-09T11:49:44;22.50;99.90
31639;DHT22;18248;51.522;7.020;2022-09-09T11:52:45;22.40;99.90
31639;DHT22;18248;51.522;7.020;2022-09-09T11:55:44;22.30;99.90
31639;DHT22;18248;51.522;7.020;2022-09-09T11:59:04;22.10;99.90
31639;DHT22;18248;51.522;7.020;2022-09-09T12:02:14;22.00;99.90
31639;DHT22;18248;51.522;7.020;2022-09-09T12:05:16;21.90;99.90
31639;DHT22;18248;51.522;7.020;2022-09-09T12:08:25;21.80;99.90
31639;DHT22;18248;51.522;7.020;2022-09-09T12:11:29;21.60;99.90
31639;DHT22;18248;51.522;7.020;2022-09-09T12:14:36;21.30;99.90
31639;DHT22;18248;51.522;7.020;2022-09-09T12:17:47;21.00;99.90
31639;DHT22;18248;51.522;7.020;2022-09-09T12:24:19;21.10;99.90
31639;DHT22;18248;51.522;7.020;2022-09-09T12:27:31;21.30;99.90
31639;DHT22;18248;51.522;7.020;2022-09-09T12:30:46;21.40;99.90
31639;DHT22;18248;51.522;7.020;2022-09-09T12:33:46;21.50;99.90
31639;DHT22;18248;51.522;7.020;2022-09-09T12:36:51;21.40;99.90
31639;DHT22;18248;51.522;7.020;2022-09-09T12:40:00;21.30;99.90
31639;DHT22;18248;51.522;7.020;2022-09-09T12:43:16;21.20;99.90
31639;DHT22;18248;51.522;7.020;2022-09-09T12:46:38;21.10;99.90
31639;DHT22;18248;51.522;7.020;2022-09-09T12:49:39;20.90;99.90
31639;DHT22;18248;51.522;7.020;2022-09-09T12:52:39;21.00;99.90
31639;DHT22;18248;51.522;7.020;2022-09-09T12:55:39;21.20;99.90
31639;DHT22;18248;51.522;7.020;2022-09-09T12:58:38;21.30;99.90
31639;DHT22;18248;51.522;7.020;2022-09-09T13:01:38;21.30;99.90
31639;DHT22;18248;51.522;7.020;2022-09-09T13:04:37;21.20;99.90
31639;DHT22;18248;51.522;7.020;2022-09-09T13:07:35;21.10;99.90
31639;DHT22;18248;51.522;7.020;2022-09-09T13:13:53;20.80;99.90
31639;DHT22;18248;51.522;7.020;2022-09-09T13:17:00;20.60;99.90
31639;DHT22;18248;51.522;7.020;2022-09-09T13:19:59;20.30;99.90
31639;DHT22;18248;51.522;7.020;2022-09-09T13:22:58;20.20;99.90
31639;DHT22;18248;51.522;7.020;2022-09-09T13:26:04;20.10;99.90
31639;DHT22;18248;51.522;7.020;2022-09-09T13:29:15;20.00;99.90
31639;DHT22;18248;51.522;7.020;2022-09-09T13:32:17;19.90;99.90
31639;DHT22;18248;51.522;7.020;2022-09-09T13:35:23;19.80;99.90
31639;DHT22;18248;51.522;7.020;2022-09-09T13:38:22;19.70;99.90
31639;DHT22;18248;51.522;7.020;2022-09-09T13:41:32;19.80;99.90
31639;DHT22;18248;51.522;7.020;2022-09-09T13:44:39;19.80;99.90
31639;DHT22;18248;51.522;7.020;2022-09-09T13:47:39;19.80;99.90
31639;DHT22;18248;51.522;7.020;2022-09-09T13:50:40;19.90;99.90
31639;DHT22;18248;51.522;7.020;2022-09-09T13:53:40;20.00;99.90
31639;DHT22;18248;51.522;7.020;2022-09-09T13:56:40;20.00;99.90
31639;DHT22;18248;51.522;7.020;2022-09-09T13:59:39;20.10;99.90
31639;DHT22;18248;51.522;7.020;2022-09-09T14:02:38;20.10;99.90
31639;DHT22;18248;51.522;7.020;2022-09-09T14:05:37;20.10;99.90
31639;DHT22;18248;51.522;7.020;2022-09-09T14:08:36;20.20;99.90
31639;DHT22;18248;51.522;7.020;2022-09-09T14:11:35;20.40;99.90
31639;DHT22;18248;51.522;7.020;2022-09-09T14:14:33;20.70;99.90
31639;DHT22;18248;51.522;7.020;2022-09-09T14:17:32;20.90;99.90
31639;DHT22;18248;51.522;7.020;2022-09-09T14:20:31;21.00;99.90
31639;DHT22;18248;51.522;7.020;2022-09-09T14:23:30;21.00;99.90
31639;DHT22;18248;51.522;7.020;2022-09-09T14:26:30;21.10;99.90
31639;DHT22;18248;51.522;7.020;2022-09-09T14:29:28;21.10;99.90
31639;DHT22;18248;51.522;7.020;2022-09-09T14:32:27;21.10;99.90
31639;DHT22;18248;51.522;7.020;2022-09-09T14:35:26;21.30;99.90
31639;DHT22;18248;51.522;7.020;2022-09-09T14:38:25;21.60;99.90
31639;DHT22;18248;51.522;7.020;2022-09-09T14:41:24;22.00;99.90
31639;DHT22;18248;51.522;7.020;2022-09-09T14:44:23;22.00;99.90
31639;DHT22;18248;51.522;7.020;2022-09-09T14:47:21;21.80;99.90
31639;DHT22;18248;51.522;7.020;2022-09-09T14:50:21;21.50;99.90
31639;DHT22;18248;51.522;7.020;2022-09-09T14:53:20;21.40;99.90
31639;DHT22;18248;51.522;7.020;2022-09-09T14:56:22;21.30;99.90
31639;DHT22;18248;51.522;7.020;2022-09-09T14:59:22;21.20;99.90
31639;DHT22;18248;51.522;7.020;2022-09-09T15:02:23;21.10;99.90
31639;DHT22;18248;51.522;7.020;2022-09-09T15:05:22;21.00;99.90
31639;DHT22;18248;51.522;7.020;2022-09-09T15:08:22;20.90;99.90
31639;DHT22;18248;51.522;7.020;2022-09-09T15:11:21;20.40;99.90
31639;DHT22;18248;51.522;7.020;2022-09-09T15:14:21;20.00;99.90
31639;DHT22;18248;51.522;7.020;2022-09-09T15:17:19;19.70;99.90
31639;DHT22;18248;51.522;7.020;2022-09-09T15:20:18;19.50;99.90
31639;DHT22;18248;51.522;7.020;2022-09-09T15:23:18;19.40;99.90
31639;DHT22;18248;51.522;7.020;2022-09-09T15:26:17;19.40;99.90
31639;DHT22;18248;51.522;7.020;2022-09-09T15:29:16;19.30;99.90
31639;DHT22;18248;51.522;7.020;2022-09-09T15:32:15;19.20;99.90
31639;DHT22;18248;51.522;7.020;2022-09-09T15:35:13;19.10;99.90
31639;DHT22;18248;51.522;7.020;2022-09-09T15:38:12;19.10;99.90
31639;DHT22;18248;51.522;7.020;2022-09-09T15:41:15;19.10;99.90
31639;DHT22;18248;51.522;7.020;2022-09-09T15:44:15;19.10;99.90
31639;DHT22;18248;51.522;7.020;2022-09-09T15:47:14;19.00;99.90
31639;DHT22;18248;51.522;7.020;2022-09-09T15:50:13;18.90;99.90
31639;DHT22;18248;51.522;7.020;2022-09-09T15:53:12;18.90;99.90
31639;DHT22;18248;51.522;7.020;2022-09-09T15:56:10;18.90;99.90
31639;DHT22;18248;51.522;7.020;2022-09-09T15:59:09;18.80;99.90
31639;DHT22;18248;51.522;7.020;2022-09-09T16:02:09;18.90;99.90
31639;DHT22;18248;51.522;7.020;2022-09-09T16:05:08;18.80;99.90
31639;DHT22;18248;51.522;7.020;2022-09-09T16:08:06;18.90;99.90
31639;DHT22;18248;51.522;7.020;2022-09-09T16:11:13;19.00;99.90
31639;DHT22;18248;51.522;7.020;2022-09-09T16:14:14;19.00;99.90
31639;DHT22;18248;51.522;7.020;2022-09-09T16:17:14;19.00;99.90
31639;DHT22;18248;51.522;7.020;2022-09-09T16:20:13;19.10;99.90
31639;DHT22;18248;51.522;7.020;2022-09-09T16:23:12;19.20;99.90
31639;DHT22;18248;51.522;7.020;2022-09-09T16:26:12;19.20;99.90
31639;DHT22;18248;51.522;7.020;2022-09-09T16:29:15;19.20;99.90
31639;DHT22;18248;51.522;7.020;2022-09-09T16:32:15;19.30;99.90
31639;DHT22;18248;51.522;7.020;2022-09-09T16:35:13;19.20;99.90
31639;DHT22;18248;51.522;7.020;2022-09-09T16:38:12;19.20;99.90
31639;DHT22;18248;51.522;7.020;2022-09-09T16:41:12;19.20;99.90
31639;DHT22;18248;51.522;7.020;2022-09-09T16:44:12;19.10;99.90
31639;DHT22;18248;51.522;7.020;2022-09-09T16:47:11;19.00;99.90
31639;DHT22;18248;51.522;7.020;2022-09-09T16:50:11;19.00;99.90
31639;DHT22;18248;51.522;7.020;2022-09-09T16:53:11;18.90;99.90
31639;DHT22;18248;51.522;7.020;2022-09-09T16:56:16;18.90;99.90
31639;DHT22;18248;51.522;7.020;2022-09-09T16:59:19;18.90;99.90
31639;DHT22;18248;51.522;7.020;2022-09-09T17:02:20;18.90;99.90
31639;DHT22;18248;51.522;7.020;2022-09-09T17:05:18;18.80;99.90
31639;DHT22;18248;51.522;7.020;2022-09-09T17:08:17;18.80;99.90
31639;DHT22;18248;51.522;7.020;2022-09-09T17:11:17;18.80;99.90
31639;DHT22;18248;51.522;7.020;2022-09-09T17:14:18;18.80;99.90
31639;DHT22;18248;51.522;7.020;2022-09-09T17:17:17;18.80;99.90
31639;DHT22;18248;51.522;7.020;2022-09-09T17:20:16;18.70;99.90
31639;DHT22;18248;51.522;7.020;2022-09-09T17:23:14;18.70;99.90
31639;DHT22;18248;51.522;7.020;2022-09-09T17:26:16;18.70;99.90
31639;DHT22;18248;51.522;7.020;2022-09-09T17:29:16;18.70;99.90
31639;DHT22;18248;51.522;7.020;2022-09-09T17:32:17;18.60;99.90
31639;DHT22;18248;51.522;7.020;2022-09-09T17:35:16;18.70;99.90
31639;DHT22;18248;51.522;7.020;2022-09-09T17:38:16;18.60;99.90
31639;DHT22;18248;51.522;7.020;2022-09-09T17:41:20;18.50;99.90
31639;DHT22;18248;51.522;7.020;2022-09-09T17:44:19;18.50;99.90
31639;DHT22;18248;51.522;7.020;2022-09-09T17:47:17;18.50;99.90
31639;DHT22;18248;51.522;7.020;2022-09-09T17:50:16;18.50;99.90
31639;DHT22;18248;51.522;7.020;2022-09-09T17:53:16;18.40;99.90
31639;DHT22;18248;51.522;7.020;2022-09-09T17:56:17;18.50;99.90
31639;DHT22;18248;51.522;7.020;2022-09-09T17:59:17;18.40;99.90
31639;DHT22;18248;51.522;7.020;2022-09-09T18:02:16;18.40;99.90
31639;DHT22;18248;51.522;7.020;2022-09-09T18:05:14;18.40;99.90
31639;DHT22;18248;51.522;7.020;2022-09-09T18:08:13;18.40;99.90
31639;DHT22;18248;51.522;7.020;2022-09-09T18:11:12;18.40;99.90
31639;DHT22;18248;51.522;7.020;2022-09-09T18:14:16;18.40;99.90
31639;DHT22;18248;51.522;7.020;2022-09-09T18:17:17;18.40;99.90
31639;DHT22;18248;51.522;7.020;2022-09-09T18:20:15;18.40;99.90
31639;DHT22;18248;51.522;7.020;2022-09-09T18:23:14;18.40;99.90
31639;DHT22;18248;51.522;7.020;2022-09-09T18:26:15;18.40;99.90
31639;DHT22;18248;51.522;7.020;2022-09-09T18:29:17;18.40;99.90
31639;DHT22;18248;51.522;7.020;2022-09-09T18:32:17;18.40;99.90
31639;DHT22;18248;51.522;7.020;2022-09-09T18:35:17;18.40;99.90
31639;DHT22;18248;51.522;7.020;2022-09-09T18:38:16;18.30;99.90
31639;DHT22;18248;51.522;7.020;2022-09-09T18:41:20;18.30;99.90
31639;DHT22;18248;51.522;7.020;2022-09-09T18:44:22;18.30;99.90
31639;DHT22;18248;51.522;7.020;2022-09-09T18:47:20;18.30;99.90
31639;DHT22;18248;51.522;7.020;2022-09-09T18:50:21;18.30;99.90
31639;DHT22;18248;51.522;7.020;2022-09-09T18:53:20;18.20;99.90
31639;DHT22;18248;51.522;7.020;2022-09-09T18:56:21;18.20;99.90
31639;DHT22;18248;51.522;7.020;2022-09-09T18:59:21;18.20;99.90
31639;DHT22;18248;51.522;7.020;2022-09-09T19:02:21;18.20;99.90
31639;DHT22;18248;51.522;7.020;2022-09-09T19:05:19;18.20;99.90
31639;DHT22;18248;51.522;7.020;2022-09-09T19:08:18;18.20;99.90
31639;DHT22;18248;51.522;7.020;2022-09-09T19:11:20;18.20;99.90
31639;DHT22;18248;51.522;7.020;2022-09-09T19:14:19;18.20;99.90
31639;DHT22;18248;51.522;7.020;2022-09-09T19:17:20;18.20;99.90
31639;DHT22;18248;51.522;7.020;2022-09-09T19:20:20;18.20;99.90
31639;DHT22;18248;51.522;7.020;2022-09-09T19:23:21;18.20;99.90
31639;DHT22;18248;51.522;7.020;2022-09-09T19:26:21;18.20;99.90
31639;DHT22;18248;51.522;7.020;2022-09-09T19:29:23;18.20;99.90
31639;DHT22;18248;51.522;7.020;2022-09-09T19:32:21;18.10;99.90
31639;DHT22;18248;51.522;7.020;2022-09-09T19:35:21;18.20;99.90
31639;DHT22;18248;51.522;7.020;2022-09-09T19:38:19;18.20;99.90
31639;DHT22;18248;51.522;7.020;2022-09-09T19:41:20;18.10;99.90
31639;DHT22;18248;51.522;7.020;2022-09-09T19:44:20;18.20;99.90
31639;DHT22;18248;51.522;7.020;2022-09-09T19:47:19;18.10;99.90
31639;DHT22;18248;51.522;7.020;2022-09-09T19:50:18;18.10;99.90
31639;DHT22;18248;51.522;7.020;2022-09-09T19:53:16;18.20;99.90
31639;DHT22;18248;51.522;7.020;2022-09-09T19:56:19;18.00;99.90
31639;DHT22;18248;51.522;7.020;2022-09-09T19:59:20;18.00;99.90
31639;DHT22;18248;51.522;7.020;2022-09-09T20:02:19;18.00;99.90
31639;DHT22;18248;51.522;7.020;2022-09-09T20:05:18;18.00;99.90
31639;DHT22;18248;51.522;7.020;2022-09-09T20:08:16;18.00;99.90
31639;DHT22;18248;51.522;7.020;2022-09-09T20:11:16;18.00;99.90
31639;DHT22;18248;51.522;7.020;2022-09-09T20:14:15;18.00;99.90
31639;DHT22;18248;51.522;7.020;2022-09-09T20:17:14;18.00;99.90
31639;DHT22;18248;51.522;7.020;2022-09-09T20:20:13;18.00;99.90
31639;DHT22;18248;51.522;7.020;2022-09-09T20:23:11;18.00;99.90
31639;DHT22;18248;51.522;7.020;2022-09-09T20:26:13;17.90;99.90